This is the latest recevied weather packets stored in our database for station/object IZ3MEZ-13. If no packets are shown the sender has not sent any weather packets the latest 10 day(s).
| Time | Temp. | Humidity | Pressure | Rain* | Wind** | Luminosity | Snow |
|---|---|---|---|---|---|---|---|
| 1777806327 | 28.33° C | 34% | 1019.7 hPa | 0 mm | - | 695 W/m² | - |
| 1777802721 | 23.89° C | 45% | 1020.3 hPa | 0 mm | - | 731 W/m² | - |
| 1777802118 | 23.33° C | 47% | 1020.2 hPa | 0 mm | - | 738 W/m² | - |
| 1777800917 | 22.78° C | 48% | 1020.5 hPa | 0 mm | - | 674 W/m² | - |
| 1777800322 | 22.22° C | 49% | 1020.5 hPa | 0 mm | - | 652 W/m² | - |
| 1777799720 | 22.22° C | 51% | 1020.5 hPa | 0 mm | - | 319 W/m² | - |
| 1777799117 | 21.67° C | 53% | 1020.6 hPa | 0 mm | - | 61 W/m² | - |
| 1777798522 | 21.11° C | 54% | 1020.6 hPa | 0 mm | - | 63 W/m² | - |
| 1777797929 | 20.56° C | 55% | 1020.7 hPa | 0 mm | - | 59 W/m² | - |
| 1777797319 | 20° C | 56% | 1020.7 hPa | 0 mm | - | 54 W/m² | - |
| 1777796716 | 19.44° C | 57% | 1020.7 hPa | 0 mm | - | 152 W/m² | - |
| 1777796131 | 19.44° C | 60% | 1020.7 hPa | 0 mm | - | 96 W/m² | - |
| 1777795519 | 18.33° C | 63% | 1020.9 hPa | 0 mm | - | 58 W/m² | - |
| 1777794926 | 17.78° C | 64% | 1020.9 hPa | 0 mm | - | 48 W/m² | - |
| 1777794317 | 17.78° C | 67% | 1021 hPa | 0 mm | - | 65 W/m² | - |
| 1777793720 | 17.22° C | 68% | 1021.1 hPa | 0 mm | - | 49 W/m² | - |
| 1777793118 | 16.67° C | 69% | 1021.1 hPa | 0 mm | - | 49 W/m² | - |
| 1777792517 | 16.11° C | 70% | 1021.1 hPa | 0 mm | - | 52 W/m² | - |
| 1777791924 | 16.11° C | 71% | 1021 hPa | 0 mm | - | 52 W/m² | - |
| 1777791323 | 15.56° C | 73% | 1021 hPa | 0 mm | - | 70 W/m² | - |
| 1777790717 | 15° C | 73% | 1021 hPa | 0 mm | - | 53 W/m² | - |
| 1777790126 | 14.44° C | 75% | 1021.1 hPa | 0 mm | - | 50 W/m² | - |
| 1777789517 | 14.44° C | 76% | 1021 hPa | 0 mm | - | 47 W/m² | - |
| 1777788922 | 13.89° C | 77% | 1021 hPa | 0 mm | - | 45 W/m² | - |
| 1777788320 | 13.33° C | 78% | 1021 hPa | 0 mm | - | 41 W/m² | - |
* Rain latest hour (hover to see other rain measurements)
** Current wind speed in m/s (hover to see current wind gust speed)